• Join FlightAware (Why Join?)
  • Login
  • US Flag 
12:33PM EDT


 

Airport Tracker/Info


-or-


 

Live Flight TrackerFlight Track Log ✈ SWA750 ✈ 21-Apr-2013 ✈ KDEN - KLAX

Flight Track Log - Related Links

Times and Time Zones

All times are in EDT time to prevent confusion due to time zone crossing. See the SWA750 flight status page for this flight to view local times or setup timezone preferences in your user account.

Time Position Orientation Groundspeed Altitude Reporting Facility
EDT Latitude Longitude Course Direction KTS MPH feet Rate Location/Type
02:19AM 39.8167 -104.6333 169° South 179 206 6,700  Level Denver TRACON
02:20AM 39.7500 -104.6167 169° South 238 274 8,400 2,400 Climbing Denver TRACON
02:21AM 39.7006 -104.5942 161° South 247 284 11,000 2,880 Climbing Denver Center
02:22AM 39.6481 -104.6444 216° Southwest 244 281 13,600 1,740 Climbing Denver Center
02:23AM 39.6308 -104.7481 258° West 320 368 14,600 1,800 Climbing Denver Center
02:24AM 39.6189 -104.8778 263° West 362 417 17,200 2,460 Climbing Denver Center
02:25AM 39.6075 -105.0086 264° West 370 426 19,600 2,460 Climbing Denver Center
02:26AM 39.5950 -105.1458 263° West 380 437 22,200 2,400 Climbing Denver Center
02:27AM 39.5828 -105.2789 263° West 380 437 24,500 1,800 Climbing Denver Center
02:28AM 39.5697 -105.4228 263° West 398 458 25,900 1,440 Climbing Denver Center
02:29AM 39.5553 -105.5714 263° West 412 474 27,500 2,880 Climbing Denver Center
02:30AM 39.5261 -105.7067 254° West 374 430 31,800 2,880 Climbing Denver Center
02:31AM 39.4783 -105.8236 242° Southwest 364 419 33,300 1,200 Climbing Denver Center
02:32AM 39.4272 -105.9394 240° Southwest 366 421 34,300 900 Climbing Denver Center
02:33AM 39.3739 -106.0589 240° Southwest 378 435 35,200 840 Climbing Denver Center
02:34AM 39.3186 -106.1811 240° Southwest 385 443 36,000 360 Climbing Denver Center
02:35AM 39.2681 -106.2964 240° Southwest 385 443 36,000  Level Denver Center
02:36AM 39.2169 -106.4119 240° Southwest 387 445 36,000  Level Denver Center
02:37AM 39.1644 -106.5272 240° Southwest 389 448 36,000  Level Denver Center
02:38AM 39.1028 -106.6617 239° Southwest 390 449 36,000  Level Denver Center
02:39AM 39.0503 -106.7775 240° Southwest 391 450 36,000  Level Denver Center
02:40AM 38.9975 -106.8944 240° Southwest 394 453 36,000  Level Denver Center
02:41AM 38.9350 -107.0303 239° Southwest 395 455 36,000  Level Denver Center
02:42AM 38.8786 -107.1531 239° Southwest 396 456 36,000  Level Denver Center
02:43AM 38.8203 -107.2783 239° Southwest 385 443 36,000  Level Denver Center
02:44AM 38.7583 -107.4114 239° Southwest 388 447 36,000  Level Denver Center
02:45AM 38.6967 -107.5453 239° Southwest 390 449 36,000  Level Denver Center
02:46AM 38.6428 -107.6603 239° Southwest 392 451 36,000  Level Denver Center
02:47AM 38.5808 -107.7928 239° Southwest 390 449 36,000  Level Denver Center
02:48AM 38.5289 -107.9039 239° Southwest 382 440 36,000  Level Denver Center
02:49AM 38.4750 -108.0172 239° Southwest 386 444 36,000  Level Denver Center
02:50AM 38.4122 -108.1494 239° Southwest 390 449 36,000  Level Denver Center
02:51AM 38.3586 -108.2639 239° Southwest 392 451 36,000  Level Denver Center
02:52AM 38.3042 -108.3747 238° Southwest 387 445 36,000  Level Denver Center
02:53AM 38.2500 -108.4917 239° Southwest 395 455 36,000  Level Denver Center
02:54AM 38.1861 -108.6233 238° Southwest 393 452 36,000  Level Denver Center
02:55AM 38.1314 -108.7358 238° Southwest 391 450 36,000  Level Denver Center
02:56AM 38.0764 -108.8494 238° Southwest 393 452 36,000  Level Denver Center
02:57AM 38.0169 -108.9686 238° Southwest 391 450 36,000  Level Denver Center
02:58AM 37.9625 -109.0808 238° Southwest 392 451 36,000  Level Denver Center
02:59AM 37.8967 -109.2142 238° Southwest 398 458 36,000  Level Denver Center
03:00AM 37.8397 -109.3289 238° Southwest 402 463 36,000  Level Denver Center
03:01AM 37.7833 -109.4458 239° Southwest 407 468 36,000  Level Denver Center
03:02AM 37.7153 -109.5822 238° Southwest 411 473 36,000  Level Denver Center
03:03AM 37.6575 -109.6975 238° Southwest 409 471 36,000  Level Denver Center
03:04AM 37.5986 -109.8164 238° Southwest 417 480 36,000  Level Denver Center
03:05AM 37.5297 -109.9539 238° Southwest 417 480 36,000  Level Denver Center
03:06AM 37.4708 -110.0706 238° Southwest 414 476 36,000  Level Denver Center
03:07AM 37.4114 -110.1867 237° Southwest 413 475 36,000  Level Denver Center
03:08AM 37.3525 -110.3044 238° Southwest 413 475 36,000  Level Denver Center
03:09AM 37.2897 -110.4281 237° Southwest 419 482 36,000  Level Denver Center
03:10AM 37.2267 -110.5494 237° Southwest 416 479 36,000  Level Denver Center
03:11AM 37.1639 -110.6711 237° Southwest 416 479 36,000  Level Denver Center
03:12AM 37.1014 -110.7939 237° Southwest 418 481 36,000  Level Denver Center
03:13AM 37.0386 -110.9142 237° Southwest 414 476 36,000  Level Denver Center
03:14AM 36.9767 -111.0350 237° Southwest 412 474 36,000  Level Denver Center
03:15AM 36.9136 -111.1575 237° Southwest 418 481 36,000  Level Denver Center
03:16AM 36.8519 -111.2775 237° Southwest 414 476 36,000  Level Denver Center
03:17AM 36.7875 -111.4014 237° Southwest 419 482 36,000  Level Denver Center
03:18AM 36.7211 -111.5256 236° Southwest 425 489 36,000  Level Denver Center
03:19AM 36.6556 -111.6514 237° Southwest 429 494 36,000 -180 Level Denver Center
03:20AM 36.5889 -111.7758 236° Southwest 431 496 35,700 -1,740 Descending Denver Center
03:21AM 36.5231 -111.8986 236° Southwest 428 493 32,500 -2,820 Descending Denver Center
03:22AM 36.4942 -111.9500 235° Southwest 430 495 32,000 -420 Descending Los Angeles Center
03:23AM 36.4269 -112.0756 236° Southwest 435 501 32,000  Level Los Angeles Center
03:24AM 36.3589 -112.2017 236° Southwest 437 503 32,000  Level Los Angeles Center
03:25AM 36.2917 -112.3289 237° Southwest 440 506 32,000  Level Los Angeles Center
03:26AM 36.2239 -112.4542 236° Southwest 436 502 32,000  Level Los Angeles Center
03:27AM 36.1553 -112.5783 236° Southwest 434 499 32,000  Level Los Angeles Center
03:28AM 36.0878 -112.7047 237° Southwest 437 503 32,000  Level Los Angeles Center
03:29AM 36.0208 -112.8281 236° Southwest 433 498 32,000  Level Los Angeles Center
03:30AM 35.9522 -112.9511 235° Southwest 436 502 32,000  Level Los Angeles Center
03:31AM 35.8844 -113.0772 236° Southwest 441 507 32,000  Level Los Angeles Center
03:32AM 35.8161 -113.2003 236° Southwest 441 507 32,000  Level Los Angeles Center
03:33AM 35.7481 -113.3231 236° Southwest 441 507 32,000  Level Los Angeles Center
03:34AM 35.6661 -113.4700 236° Southwest 440 506 32,000  Level Los Angeles Center
03:35AM 35.6019 -113.5961 238° Southwest 441 507 32,000  Level Los Angeles Center
03:36AM 35.5500 -113.7289 244° Southwest 438 504 32,000  Level Los Angeles Center
03:37AM 35.4958 -113.8608 243° Southwest 436 502 32,000  Level Los Angeles Center
03:38AM 35.4369 -114.0053 243° Southwest 437 503 32,000  Level Los Angeles Center
03:39AM 35.3828 -114.1369 243° Southwest 434 499 32,000  Level Los Angeles Center
03:40AM 35.3286 -114.2692 243° Southwest 434 499 32,000  Level Los Angeles Center
03:41AM 35.2756 -114.3992 243° Southwest 428 493 32,000  Level Los Angeles Center
03:42AM 35.2203 -114.5308 243° Southwest 433 498 32,000  Level Los Angeles Center
03:43AM 35.1669 -114.6608 243° Southwest 428 493 32,000  Level Los Angeles Center
03:44AM 35.1119 -114.7908 243° Southwest 430 495 32,000  Level Los Angeles Center
03:45AM 35.0456 -114.9475 243° Southwest 432 497 32,000  Level Los Angeles Center
03:46AM 34.9922 -115.0792 244° Southwest 432 497 32,000  Level Los Angeles Center
03:47AM 34.9364 -115.2111 243° Southwest 435 501 32,000  Level Los Angeles Center
03:48AM 34.8811 -115.3417 243° Southwest 433 498 32,000  Level Los Angeles Center
03:49AM 34.8233 -115.4731 242° Southwest 438 504 32,000  Level Los Angeles Center
03:50AM 34.7739 -115.5919 243° Southwest 440 506 32,000  Level Los Angeles Center
03:51AM 34.7175 -115.7217 242° Southwest 437 503 32,000  Level Los Angeles Center
03:52AM 34.6611 -115.8525 242° Southwest 437 503 32,000  Level Los Angeles Center
03:53AM 34.6047 -115.9822 242° Southwest 435 501 32,000  Level Los Angeles Center
03:54AM 34.5492 -116.1133 243° Southwest 436 502 32,000 -300 Level Los Angeles Center
03:55AM 34.4917 -116.2403 241° Southwest 432 497 31,400 -840 Descending Los Angeles Center
03:56AM 34.4375 -116.3658 242° Southwest 420 483 30,400 -1,020 Descending Los Angeles Center
03:57AM 34.3825 -116.4911 242° Southwest 420 483 29,400 -1,200 Descending Los Angeles Center
03:58AM 34.3283 -116.6139 242° Southwest 415 478 28,100 -1,740 Descending Los Angeles Center
03:59AM 34.2747 -116.7328 241° Southwest 404 465 25,900 -2,160 Descending Los Angeles Center
04:00AM 34.2236 -116.8483 242° Southwest 393 452 23,800 -2,100 Descending Los Angeles Center
04:01AM 34.1728 -116.9619 242° Southwest 384 442 21,700 -2,220 Descending Los Angeles Center
04:02AM 34.1158 -117.0864 241° Southwest 367 422 19,400 -1,740 Descending Los Angeles Center
04:03AM 34.1000 -117.1333 248° West 337 388 19,000 -1,200 Descending Southern California TRACON
04:04AM 34.0500 -117.2333 239° Southwest 323 372 17,700 -1,620 Descending Southern California TRACON
04:05AM 34.0333 -117.3333 259° West 305 351 15,800 -1,920 Descending Southern California TRACON
04:06AM 34.0333 -117.4333 270° West 300 345 13,900 -1,860 Descending Southern California TRACON
04:07AM 34.0333 -117.5333 270° West 276 318 12,100 -1,560 Descending Southern California TRACON
04:08AM 34.0333 -117.6500 270° West 262 302 10,500 -1,260 Descending Southern California TRACON
04:09AM 34.0167 -117.7333 256° West 258 297 9,600 -1,140 Descending Southern California TRACON
04:10AM 34.0167 -117.8167 270° West 249 287 8,400 -1,200 Descending Southern California TRACON
04:11AM 34.0000 -117.9000 256° West 247 284 7,300 -1,020 Descending Southern California TRACON
04:12AM 34.0000 -117.9667 270° West 223 257 6,400 -840 Descending Southern California TRACON
04:13AM 33.9833 -118.0333 253° West 196 226 5,700 -900 Descending Southern California TRACON
04:14AM 33.9833 -118.1167 270° West 202 232 4,600 -900 Descending Southern California TRACON
04:14AM 33.9797 -118.1319 254° West 199 229 4,400 -900 Descending Los Angeles Center
04:15AM 33.9742 -118.1958 264° West 196 226 3,400 -960 Descending Los Angeles Center
04:16AM 33.9669 -118.2553 262° West 186 214 2,500 -900 Descending Los Angeles Center
04:17AM 33.9619 -118.3128 264° West 180 207 1,600 -900 Descending Los Angeles Center
04:18AM 33.9569 -118.3636 263° West 167 192 800 -720 Descending Los Angeles Center
04:19AM 33.9517 -118.4172 263° West 159 183 200 -660 Descending Los Angeles Center